createdAt,value
2018-12-29T00:01:45.602Z,6.80
2018-12-29T00:04:14.975Z,6.80
2018-12-29T00:06:43.906Z,6.80
2018-12-29T00:09:13.154Z,6.80
2018-12-29T00:11:42.112Z,6.80
2018-12-29T00:14:10.974Z,6.80
2018-12-29T00:16:40.206Z,6.80
2018-12-29T00:19:09.409Z,6.80
2018-12-29T00:21:38.381Z,6.80
2018-12-29T00:24:07.645Z,6.80
2018-12-29T00:26:36.907Z,6.80
2018-12-29T00:29:05.835Z,6.80
2018-12-29T00:31:34.701Z,6.90
2018-12-29T00:34:03.877Z,6.90
2018-12-29T00:36:32.809Z,6.80
2018-12-29T00:39:04.106Z,6.90
2018-12-29T00:41:33.108Z,6.90
2018-12-29T00:44:02.051Z,6.90
2018-12-29T00:46:31.170Z,6.90
2018-12-29T00:49:00.094Z,6.90
2018-12-29T00:51:29.089Z,6.90
2018-12-29T00:53:58.106Z,6.90
2018-12-29T00:56:27.122Z,6.90
2018-12-29T01:01:21.581Z,6.90
2018-12-29T01:03:51.571Z,6.90
2018-12-29T01:06:20.486Z,6.90
2018-12-29T01:08:49.395Z,7.00
2018-12-29T01:11:18.482Z,7.00
2018-12-29T01:13:47.477Z,7.00
2018-12-29T01:18:51.348Z,7.00
2018-12-29T01:21:20.324Z,7.00
2018-12-29T01:23:50.412Z,7.00
2018-12-29T01:26:19.838Z,7.00
2018-12-29T01:28:49.136Z,7.00
2018-12-29T01:31:18.069Z,7.00
2018-12-29T01:33:47.000Z,7.10
2018-12-29T01:36:15.983Z,7.10
2018-12-29T01:38:44.913Z,7.10
2018-12-29T01:41:13.865Z,7.10
2018-12-29T01:43:43.642Z,7.10
2018-12-29T01:46:14.837Z,7.10
2018-12-29T01:48:46.792Z,7.10
2018-12-29T01:51:15.988Z,7.10
2018-12-29T01:53:48.190Z,7.10
2018-12-29T01:56:17.786Z,7.10
2018-12-29T01:59:15.282Z,7.20
2018-12-29T02:01:44.572Z,7.20
2018-12-29T02:04:13.406Z,7.20
2018-12-29T02:06:42.334Z,7.20
2018-12-29T02:09:11.325Z,7.30
2018-12-29T02:11:40.282Z,7.30
2018-12-29T02:14:09.786Z,7.30
2018-12-29T02:16:38.677Z,7.30
2018-12-29T02:19:07.937Z,7.30
2018-12-29T02:21:36.827Z,7.40
2018-12-29T02:24:06.157Z,7.40
2018-12-29T02:26:36.121Z,7.40
2018-12-29T02:29:05.078Z,7.40
2018-12-29T02:31:33.933Z,7.40
2018-12-29T02:34:02.898Z,7.40
2018-12-29T02:36:32.085Z,7.50
2018-12-29T02:39:02.863Z,7.50
2018-12-29T02:41:58.715Z,7.50
2018-12-29T02:44:27.561Z,7.50
2018-12-29T02:46:56.841Z,7.50
2018-12-29T02:49:26.015Z,7.50
2018-12-29T02:51:57.119Z,7.60
2018-12-29T02:54:26.019Z,7.60
2018-12-29T02:56:54.932Z,7.50
2018-12-29T02:59:23.821Z,7.50
2018-12-29T03:01:52.756Z,7.60
2018-12-29T03:04:21.685Z,7.60
2018-12-29T03:09:25.786Z,7.60
2018-12-29T03:11:54.722Z,7.50
2018-12-29T03:14:23.619Z,7.50
2018-12-29T03:16:52.566Z,7.60
2018-12-29T03:19:25.920Z,7.50
2018-12-29T03:21:58.087Z,7.50
2018-12-29T03:24:27.878Z,7.50
2018-12-29T03:26:56.697Z,7.60
2018-12-29T03:29:25.788Z,7.70
2018-12-29T03:31:54.787Z,7.60
2018-12-29T03:34:24.550Z,7.60
2018-12-29T03:36:53.481Z,7.60
2018-12-29T03:39:22.698Z,7.70
2018-12-29T03:41:51.932Z,7.70
2018-12-29T03:44:20.854Z,7.60
2018-12-29T03:46:49.990Z,7.60
2018-12-29T03:49:18.905Z,7.50
2018-12-29T03:51:48.509Z,7.50
2018-12-29T03:54:17.791Z,7.50
2018-12-29T03:56:47.722Z,7.50
2018-12-29T03:59:16.641Z,7.50
2018-12-29T04:01:46.389Z,7.50
2018-12-29T04:04:15.650Z,7.50
2018-12-29T04:06:44.547Z,7.40
2018-12-29T04:09:35.158Z,7.50
2018-12-29T04:12:18.655Z,7.50
2018-12-29T04:14:48.026Z,7.50
2018-12-29T04:17:17.050Z,7.50
2018-12-29T04:19:46.383Z,7.60
2018-12-29T04:22:15.409Z,7.60
2018-12-29T04:24:44.612Z,7.60
2018-12-29T04:27:13.775Z,7.60
2018-12-29T04:29:42.605Z,7.60
2018-12-29T04:32:11.805Z,7.60
2018-12-29T04:34:41.431Z,7.60
2018-12-29T04:37:10.358Z,7.70
2018-12-29T04:39:39.535Z,7.70
2018-12-29T04:42:08.518Z,7.70
2018-12-29T04:44:40.741Z,7.70
2018-12-29T04:47:12.265Z,7.70
2018-12-29T04:49:41.412Z,7.70
2018-12-29T04:55:24.301Z,7.70
2018-12-29T04:57:53.133Z,7.70
2018-12-29T05:00:22.045Z,7.70
2018-12-29T05:02:51.775Z,7.70
2018-12-29T05:05:20.694Z,7.70
2018-12-29T05:07:49.672Z,7.80
2018-12-29T05:10:18.552Z,7.70
2018-12-29T05:12:47.467Z,7.80
2018-12-29T05:15:16.359Z,7.80
2018-12-29T05:17:45.537Z,7.80
2018-12-29T05:20:15.331Z,7.80
2018-12-29T05:22:44.230Z,7.90
2018-12-29T05:25:13.354Z,7.90
2018-12-29T05:27:42.589Z,8.00
2018-12-29T05:30:11.427Z,8.10
2018-12-29T05:32:40.315Z,8.10
2018-12-29T05:35:09.224Z,8.20
2018-12-29T05:37:38.063Z,8.20
2018-12-29T05:40:07.048Z,8.20
2018-12-29T05:42:37.658Z,8.30
2018-12-29T05:45:10.415Z,8.30
2018-12-29T05:47:43.046Z,8.30
2018-12-29T05:52:46.799Z,8.40
2018-12-29T05:55:15.986Z,8.40
2018-12-29T05:57:45.835Z,8.50
2018-12-29T06:00:14.909Z,8.50
2018-12-29T06:02:44.073Z,8.50
2018-12-29T06:05:25.174Z,8.50
2018-12-29T06:07:54.422Z,8.50
2018-12-29T06:10:23.318Z,8.50
2018-12-29T06:12:52.541Z,8.50
2018-12-29T06:15:21.378Z,8.50
2018-12-29T06:17:50.522Z,8.50
2018-12-29T06:20:19.352Z,8.60
2018-12-29T06:22:57.480Z,8.60
2018-12-29T06:25:26.860Z,8.60
2018-12-29T06:27:57.698Z,8.60
2018-12-29T06:30:26.946Z,8.60
2018-12-29T06:32:56.102Z,8.60
2018-12-29T06:35:25.020Z,8.60
2018-12-29T06:37:56.362Z,8.60
2018-12-29T06:40:25.410Z,8.60
2018-12-29T06:42:54.408Z,8.50
2018-12-29T06:45:23.472Z,8.50
2018-12-29T06:47:55.951Z,8.40
2018-12-29T06:50:25.201Z,8.30
2018-12-29T06:52:54.995Z,8.30
2018-12-29T06:55:23.916Z,8.20
2018-12-29T06:57:52.927Z,8.10
2018-12-29T07:00:22.162Z,8.00
2018-12-29T07:02:51.878Z,7.90
2018-12-29T07:05:21.435Z,7.80
2018-12-29T07:07:50.391Z,7.80
2018-12-29T07:10:19.647Z,7.70
2018-12-29T07:12:48.667Z,7.70
2018-12-29T07:15:18.231Z,7.70
2018-12-29T07:17:47.165Z,7.60
2018-12-29T07:20:16.426Z,7.60
2018-12-29T07:22:46.708Z,7.60
2018-12-29T07:25:15.889Z,7.60
2018-12-29T07:27:45.062Z,7.60
2018-12-29T07:30:13.898Z,7.60
2018-12-29T07:32:43.272Z,7.60
2018-12-29T07:35:12.724Z,7.60
2018-12-29T07:37:41.705Z,7.60
2018-12-29T07:40:10.837Z,7.60
2018-12-29T07:42:39.737Z,7.60
2018-12-29T07:45:09.841Z,7.70
2018-12-29T07:47:39.080Z,7.60
2018-12-29T07:50:08.051Z,7.60
2018-12-29T07:52:38.143Z,7.70
2018-12-29T07:55:07.027Z,7.70
2018-12-29T07:57:36.338Z,7.60
2018-12-29T08:00:06.227Z,7.60
2018-12-29T08:02:35.634Z,7.60
2018-12-29T08:05:05.634Z,7.60
2018-12-29T08:07:34.994Z,7.60
2018-12-29T08:10:04.514Z,7.60
2018-12-29T08:12:33.525Z,7.60
2018-12-29T08:15:03.403Z,7.60
2018-12-29T08:17:32.508Z,7.60
2018-12-29T08:20:06.402Z,7.60
2018-12-29T08:22:35.445Z,7.60
2018-12-29T08:25:04.429Z,7.60
2018-12-29T08:27:38.692Z,7.60
2018-12-29T08:30:11.186Z,7.60
2018-12-29T08:32:40.102Z,7.60
2018-12-29T08:35:10.003Z,7.60
2018-12-29T08:37:43.127Z,7.60
2018-12-29T08:40:12.784Z,7.60
2018-12-29T08:42:42.068Z,7.60
2018-12-29T08:45:11.416Z,7.60
2018-12-29T08:47:40.918Z,7.60
2018-12-29T08:50:13.154Z,7.60
2018-12-29T08:55:15.464Z,7.60
2018-12-29T08:57:45.287Z,7.70
2018-12-29T09:00:14.218Z,7.70
2018-12-29T09:02:43.474Z,7.70
2018-12-29T09:05:12.490Z,7.70
2018-12-29T09:07:42.385Z,7.70
2018-12-29T09:10:11.431Z,7.70
2018-12-29T09:12:40.526Z,7.70
2018-12-29T09:15:09.595Z,7.70
2018-12-29T09:17:38.643Z,7.80
2018-12-29T09:20:07.904Z,7.80
2018-12-29T09:22:37.474Z,7.80
2018-12-29T09:25:08.296Z,7.80
2018-12-29T09:27:40.332Z,7.90
2018-12-29T09:30:09.333Z,7.90
2018-12-29T09:32:38.346Z,7.90
2018-12-29T09:35:07.283Z,8.00
2018-12-29T09:37:36.463Z,8.00
2018-12-29T09:40:06.279Z,8.10
2018-12-29T09:42:35.237Z,8.00
2018-12-29T09:45:04.308Z,8.10
2018-12-29T09:47:33.304Z,8.10
2018-12-29T09:50:02.600Z,8.10
2018-12-29T09:52:34.424Z,8.10
2018-12-29T09:57:38.075Z,8.10
2018-12-29T10:00:08.307Z,8.20
2018-12-29T10:02:39.129Z,8.20
2018-12-29T10:07:43.748Z,8.10
2018-12-29T10:10:13.008Z,8.20
2018-12-29T10:12:43.635Z,8.20
2018-12-29T10:15:13.192Z,8.20
2018-12-29T10:17:43.149Z,8.20
2018-12-29T10:20:12.524Z,8.20
2018-12-29T10:22:42.645Z,8.20
2018-12-29T10:25:11.743Z,8.30
2018-12-29T10:27:40.904Z,8.30
2018-12-29T10:30:10.631Z,8.30
2018-12-29T10:32:40.086Z,8.40
2018-12-29T10:35:11.328Z,8.40
2018-12-29T10:37:46.904Z,8.30
2018-12-29T10:40:19.714Z,8.30
2018-12-29T10:42:50.890Z,8.30
2018-12-29T10:45:19.802Z,8.30
2018-12-29T10:47:49.151Z,8.30
2018-12-29T10:50:18.786Z,8.30
2018-12-29T10:52:47.803Z,8.30
2018-12-29T10:55:17.373Z,8.30
2018-12-29T10:57:46.549Z,8.30
2018-12-29T11:00:15.807Z,8.30
2018-12-29T11:02:46.190Z,8.30
2018-12-29T11:05:15.451Z,8.30
2018-12-29T11:07:44.480Z,8.30
2018-12-29T11:10:13.434Z,8.30
2018-12-29T11:12:42.447Z,8.30
2018-12-29T11:15:11.437Z,8.30
2018-12-29T11:17:42.375Z,8.30
2018-12-29T11:20:11.187Z,8.30
2018-12-29T11:22:42.668Z,8.30
2018-12-29T11:25:11.608Z,8.30
2018-12-29T11:27:40.537Z,8.30
2018-12-29T11:30:11.225Z,8.30
2018-12-29T11:32:40.134Z,8.40
2018-12-29T11:35:09.152Z,8.40
2018-12-29T11:37:38.858Z,8.40
2018-12-29T11:40:09.812Z,8.50
2018-12-29T11:42:38.792Z,8.50
2018-12-29T11:45:08.128Z,8.50
2018-12-29T11:47:37.182Z,8.50
2018-12-29T11:50:06.648Z,8.60
2018-12-29T11:52:35.725Z,8.50
2018-12-29T11:55:05.219Z,8.60
2018-12-29T11:57:37.970Z,8.60
2018-12-29T12:00:09.514Z,8.60
2018-12-29T12:02:38.526Z,8.60
2018-12-29T12:05:11.215Z,8.60
2018-12-29T12:07:40.629Z,8.80
2018-12-29T12:10:09.987Z,9.00
2018-12-29T12:12:39.485Z,9.10
2018-12-29T12:15:09.021Z,9.20
2018-12-29T12:17:38.372Z,9.20
2018-12-29T12:20:07.813Z,9.20
2018-12-29T12:22:39.617Z,9.20
2018-12-29T12:25:08.888Z,9.20
2018-12-29T12:27:38.008Z,9.20
2018-12-29T12:30:07.761Z,9.20
2018-12-29T12:32:36.873Z,9.20
2018-12-29T12:35:06.960Z,9.20
2018-12-29T12:37:36.551Z,9.20
2018-12-29T12:40:07.324Z,9.20
2018-12-29T12:42:36.461Z,9.20
2018-12-29T12:45:05.689Z,9.20
2018-12-29T12:47:35.314Z,9.20
2018-12-29T12:50:05.063Z,9.30
2018-12-29T12:53:02.706Z,9.30
2018-12-29T12:55:33.212Z,9.20
2018-12-29T12:58:02.736Z,9.20
2018-12-29T13:00:32.558Z,9.20
2018-12-29T13:03:02.275Z,9.10
2018-12-29T13:05:31.483Z,9.10
2018-12-29T13:08:03.796Z,9.10
2018-12-29T13:10:34.045Z,9.10
2018-12-29T13:13:03.353Z,9.10
2018-12-29T13:15:33.118Z,9.00
2018-12-29T13:18:02.269Z,9.00
2018-12-29T13:20:31.772Z,9.00
2018-12-29T13:23:00.948Z,8.90
2018-12-29T13:25:30.205Z,8.80
2018-12-29T13:27:59.709Z,8.80
2018-12-29T13:30:35.264Z,8.80
2018-12-29T13:33:04.565Z,8.80
2018-12-29T13:35:35.735Z,8.80
2018-12-29T13:38:09.808Z,8.80
2018-12-29T13:40:38.911Z,8.80
2018-12-29T13:43:11.044Z,8.80
2018-12-29T13:45:40.144Z,8.80
2018-12-29T13:48:09.287Z,8.80
2018-12-29T13:50:39.457Z,8.80
2018-12-29T13:53:08.805Z,8.80
2018-12-29T13:55:37.911Z,8.80
2018-12-29T13:58:07.665Z,8.80
2018-12-29T14:00:36.721Z,8.80
2018-12-29T14:05:40.639Z,8.80
2018-12-29T14:08:10.596Z,8.80
2018-12-29T14:10:39.751Z,8.80
2018-12-29T14:13:09.200Z,8.80
2018-12-29T14:15:38.271Z,8.80
2018-12-29T14:18:07.849Z,8.80
2018-12-29T14:20:43.534Z,8.80
2018-12-29T14:23:12.629Z,8.80
2018-12-29T14:25:42.522Z,8.80
2018-12-29T14:28:11.736Z,8.80
2018-12-29T14:30:40.629Z,8.90
2018-12-29T14:33:09.708Z,8.90
2018-12-29T14:35:38.939Z,8.90
2018-12-29T14:38:08.129Z,9.00
2018-12-29T14:40:37.263Z,9.10
2018-12-29T14:43:06.373Z,9.10
2018-12-29T14:45:35.753Z,9.10
2018-12-29T14:48:04.767Z,9.10
2018-12-29T14:50:35.492Z,9.20
2018-12-29T14:53:05.350Z,9.20
2018-12-29T14:55:35.256Z,9.30
2018-12-29T14:58:04.956Z,9.20
2018-12-29T15:00:34.088Z,9.30
2018-12-29T15:03:03.290Z,9.30
2018-12-29T15:05:32.470Z,9.40
2018-12-29T15:08:01.601Z,9.40
2018-12-29T15:10:30.721Z,9.40
2018-12-29T15:12:59.851Z,9.40
2018-12-29T15:15:29.059Z,9.50
2018-12-29T15:17:58.252Z,9.50
2018-12-29T15:20:27.884Z,9.50
2018-12-29T15:22:59.013Z,9.50
2018-12-29T15:25:28.974Z,9.60
2018-12-29T15:27:58.061Z,9.60
2018-12-29T15:30:27.308Z,9.60
2018-12-29T15:32:56.604Z,9.60
2018-12-29T15:35:25.756Z,9.60
2018-12-29T15:37:55.596Z,9.60
2018-12-29T15:40:25.073Z,9.60
2018-12-29T15:42:54.114Z,9.70
2018-12-29T15:45:23.468Z,9.70
2018-12-29T15:47:52.952Z,9.70
2018-12-29T15:50:22.338Z,9.60
2018-12-29T15:52:52.218Z,9.60
2018-12-29T15:55:21.690Z,9.60
2018-12-29T15:57:50.730Z,9.50
2018-12-29T16:00:19.919Z,9.50
2018-12-29T16:02:49.531Z,9.60
2018-12-29T16:05:19.245Z,9.50
2018-12-29T16:07:49.154Z,9.60
2018-12-29T16:10:18.630Z,9.50
2018-12-29T16:12:47.802Z,9.50
2018-12-29T16:15:17.105Z,9.60
2018-12-29T16:17:47.828Z,9.60
2018-12-29T16:20:16.997Z,9.60
2018-12-29T16:22:46.759Z,9.60
2018-12-29T16:25:18.317Z,9.60
2018-12-29T16:27:47.747Z,9.70
2018-12-29T16:30:17.336Z,9.80
2018-12-29T16:32:46.960Z,9.90
2018-12-29T16:35:16.351Z,9.90
2018-12-29T16:37:45.290Z,10.00
2018-12-29T16:40:14.522Z,10.20
2018-12-29T16:42:44.506Z,10.30
2018-12-29T16:45:13.856Z,10.30
2018-12-29T16:47:43.364Z,10.50
2018-12-29T16:50:12.514Z,10.60
2018-12-29T16:52:42.092Z,10.60
2018-12-29T16:55:11.950Z,10.70
2018-12-29T16:57:41.525Z,10.70
2018-12-29T17:00:10.638Z,10.70
2018-12-29T17:02:39.802Z,10.70
2018-12-29T17:05:09.440Z,10.70
2018-12-29T17:07:38.555Z,10.70
2018-12-29T17:10:07.673Z,10.70
2018-12-29T17:12:36.985Z,10.70
2018-12-29T17:15:09.227Z,10.70
2018-12-29T17:17:38.267Z,10.70
2018-12-29T17:20:07.297Z,10.70
2018-12-29T17:22:36.856Z,10.60
2018-12-29T17:25:09.434Z,10.60
2018-12-29T17:27:38.431Z,10.60
2018-12-29T17:30:07.840Z,10.60
2018-12-29T17:32:37.617Z,10.50
2018-12-29T17:35:08.096Z,10.50
2018-12-29T17:37:37.153Z,10.50
2018-12-29T17:40:09.169Z,10.50
2018-12-29T17:42:38.440Z,10.50
2018-12-29T17:45:07.959Z,10.50
2018-12-29T17:47:37.032Z,10.50
2018-12-29T17:50:06.711Z,10.40
2018-12-29T17:52:39.352Z,10.40
2018-12-29T17:55:11.073Z,10.30
2018-12-29T17:57:40.129Z,10.40
2018-12-29T18:00:09.514Z,10.40
2018-12-29T18:02:38.672Z,10.30
2018-12-29T18:05:07.999Z,10.30
2018-12-29T18:07:40.051Z,10.20
2018-12-29T18:10:09.074Z,10.20
2018-12-29T18:12:38.184Z,10.20
2018-12-29T18:15:07.312Z,10.20
2018-12-29T18:17:36.476Z,10.20
2018-12-29T18:20:05.950Z,10.10
2018-12-29T18:22:35.151Z,10.10
2018-12-29T18:25:16.374Z,10.10
2018-12-29T18:27:46.296Z,10.10
2018-12-29T18:30:15.424Z,10.00
2018-12-29T18:32:45.386Z,10.00
2018-12-29T18:35:14.467Z,10.10
2018-12-29T18:37:44.079Z,10.00
2018-12-29T18:40:13.555Z,10.00
2018-12-29T18:42:43.208Z,10.00
2018-12-29T18:45:12.401Z,9.90
2018-12-29T18:47:41.801Z,9.90
2018-12-29T18:50:11.334Z,9.80
2018-12-29T18:52:40.738Z,9.80
2018-12-29T18:55:12.734Z,9.80
2018-12-29T18:57:42.745Z,9.80
2018-12-29T19:00:12.737Z,9.80
2018-12-29T19:02:42.597Z,9.80
2018-12-29T19:05:12.209Z,9.80
2018-12-29T19:07:43.411Z,9.80
2018-12-29T19:10:13.509Z,9.80
2018-12-29T19:12:46.011Z,9.70
2018-12-29T19:15:15.731Z,9.70
2018-12-29T19:17:46.563Z,9.70
2018-12-29T19:20:15.805Z,9.70
2018-12-29T19:22:45.224Z,9.70
2018-12-29T19:25:14.932Z,9.70
2018-12-29T19:27:45.544Z,9.60
2018-12-29T19:30:14.743Z,9.60
2018-12-29T19:32:44.017Z,9.50
2018-12-29T19:35:14.469Z,9.40
2018-12-29T19:37:44.602Z,9.40
2018-12-29T19:40:14.000Z,9.40
2018-12-29T19:42:43.684Z,9.40
2018-12-29T19:45:14.110Z,9.50
2018-12-29T19:47:43.517Z,9.50
2018-12-29T19:50:13.576Z,9.50
2018-12-29T19:52:43.282Z,9.50
2018-12-29T19:55:14.888Z,9.40
2018-12-29T19:57:44.941Z,9.40
2018-12-29T20:00:14.192Z,9.30
2018-12-29T20:02:45.540Z,9.30
2018-12-29T20:05:14.923Z,9.30
2018-12-29T20:07:43.969Z,9.20
2018-12-29T20:10:13.269Z,9.20
2018-12-29T20:12:42.431Z,9.20
2018-12-29T20:15:18.309Z,9.20
2018-12-29T20:17:47.430Z,9.10
2018-12-29T20:20:17.338Z,9.10
2018-12-29T20:22:47.003Z,9.10
2018-12-29T20:25:16.703Z,9.10
2018-12-29T20:27:46.532Z,9.10
2018-12-29T20:30:15.845Z,9.10
2018-12-29T20:32:58.798Z,9.00
2018-12-29T20:35:21.227Z,9.00
2018-12-29T20:37:51.183Z,9.00
2018-12-29T20:40:22.212Z,9.00
2018-12-29T20:42:51.522Z,9.00
2018-12-29T20:45:21.833Z,8.90
2018-12-29T20:47:51.042Z,8.90
2018-12-29T20:50:20.636Z,9.00
2018-12-29T20:52:49.842Z,8.90
2018-12-29T20:55:18.907Z,8.90
2018-12-29T20:57:59.853Z,8.90
2018-12-29T21:00:30.891Z,8.90
2018-12-29T21:03:03.591Z,8.80
2018-12-29T21:05:32.693Z,8.80
2018-12-29T21:08:02.005Z,8.70
2018-12-29T21:10:32.158Z,8.70
2018-12-29T21:13:01.221Z,8.70
2018-12-29T21:15:30.902Z,8.80
2018-12-29T21:18:00.234Z,8.80
2018-12-29T21:20:29.783Z,8.80
2018-12-29T21:22:59.068Z,8.80
2018-12-29T21:25:30.529Z,8.80
2018-12-29T21:28:00.724Z,8.90
2018-12-29T21:30:29.905Z,8.80
2018-12-29T21:32:59.249Z,8.80
2018-12-29T21:35:28.845Z,8.80
2018-12-29T21:37:57.908Z,8.90
2018-12-29T21:40:27.493Z,8.80
2018-12-29T21:42:56.928Z,8.80
2018-12-29T21:45:26.449Z,8.90
2018-12-29T21:47:55.653Z,8.80
2018-12-29T21:50:25.957Z,8.90
2018-12-29T21:52:56.223Z,8.80
2018-12-29T21:55:37.126Z,8.80
2018-12-29T21:58:06.652Z,8.90
2018-12-29T22:00:35.662Z,8.90
2018-12-29T22:03:05.568Z,8.90
2018-12-29T22:05:34.860Z,8.90
2018-12-29T22:08:04.079Z,8.90
2018-12-29T22:10:34.378Z,9.00
2018-12-29T22:13:04.113Z,9.00
2018-12-29T22:15:33.958Z,9.00
2018-12-29T22:18:03.166Z,8.90
2018-12-29T22:20:33.399Z,8.90
2018-12-29T22:23:03.296Z,8.90
2018-12-29T22:25:32.629Z,8.90
2018-12-29T22:28:05.242Z,8.90
2018-12-29T22:30:34.698Z,8.80
2018-12-29T22:33:07.919Z,8.90
2018-12-29T22:35:37.053Z,8.90
2018-12-29T22:38:06.910Z,8.90
2018-12-29T22:40:37.093Z,8.90
2018-12-29T22:43:06.229Z,8.90
2018-12-29T22:45:35.331Z,8.90
2018-12-29T22:48:04.690Z,8.80
2018-12-29T22:50:40.863Z,8.80
2018-12-29T22:53:04.769Z,8.80
2018-12-29T22:55:34.169Z,8.90
2018-12-29T22:58:08.654Z,8.80
2018-12-29T23:00:40.345Z,8.80
2018-12-29T23:03:10.567Z,8.80
2018-12-29T23:05:39.563Z,8.80
2018-12-29T23:08:09.343Z,8.80
2018-12-29T23:10:39.558Z,8.80
2018-12-29T23:13:08.675Z,8.90
2018-12-29T23:15:37.704Z,8.80
2018-12-29T23:18:06.831Z,8.80
2018-12-29T23:20:37.379Z,8.80
2018-12-29T23:23:06.617Z,8.80
2018-12-29T23:25:38.097Z,8.90
2018-12-29T23:28:07.308Z,8.80
2018-12-29T23:33:12.448Z,8.90
2018-12-29T23:35:41.566Z,8.90
2018-12-29T23:38:11.320Z,8.80
2018-12-29T23:40:40.360Z,8.80
2018-12-29T23:43:09.283Z,8.80
2018-12-29T23:45:38.741Z,8.80
2018-12-29T23:48:11.605Z,8.80
2018-12-29T23:50:40.597Z,8.80
2018-12-29T23:53:09.765Z,8.80
2018-12-29T23:55:39.082Z,8.80
2018-12-29T23:58:08.259Z,8.80
